Time;durP1;ratioP1;P1;durP2;ratioP2;P2;SDS_P1;SDS_P2;PMS_P1;PMS_P2;Temp;Humidity;BMP_temperature;BMP_pressure;BME280_temperature;BME280_humidity;BME280_pressure;Samples;Min_cycle;Max_cycle;Signal;HPM_P1;HPM_P2
2022/07/17 00:00:08;;;;;;;3.50;1.73;;;;;;;14.52;68.90;102530.25;5135568;27;20058;-88
2022/07/17 00:02:33;;;;;;;7.25;1.98;;;;;;;14.46;70.87;102520.13;5137343;27;20058;-88
2022/07/17 00:05:04;;;;;;;9.57;1.90;;;;;;;14.42;71.14;102519.69;5118154;27;20058;-88
2022/07/17 00:07:34;;;;;;;9.38;1.90;;;;;;;14.37;70.53;102520.28;5101132;27;20023;-88
2022/07/17 00:10:02;;;;;;;6.18;1.90;;;;;;;14.34;71.03;102526.16;5118781;27;20023;-88
2022/07/17 00:12:28;;;;;;;5.73;1.70;;;;;;;14.33;71.48;102532.63;5118255;27;20027;-88
2022/07/17 00:14:53;;;;;;;4.97;1.75;;;;;;;14.29;71.67;102522.31;5118209;27;20477;-88
2022/07/17 00:17:21;;;;;;;6.77;1.90;;;;;;;14.28;71.32;102532.41;5101711;27;20023;-88
2022/07/17 00:19:47;;;;;;;7.07;1.65;;;;;;;14.22;71.12;102527.75;5136307;27;20102;-88
2022/07/17 00:22:15;;;;;;;9.63;1.73;;;;;;;14.20;71.74;102527.94;5117738;27;20126;-88
2022/07/17 00:24:40;;;;;;;6.20;1.83;;;;;;;14.16;72.35;102534.00;5117733;27;20427;-88
2022/07/17 00:27:06;;;;;;;6.60;2.20;;;;;;;14.10;72.93;102529.31;5117720;27;20058;-88
2022/07/17 00:29:34;;;;;;;6.60;2.22;;;;;;;14.09;72.76;102533.13;5117692;27;20540;-88
2022/07/17 00:32:00;;;;;;;5.72;2.00;;;;;;;14.03;73.65;102538.31;5136383;27;20023;-88
2022/07/17 00:34:25;;;;;;;4.97;1.83;;;;;;;14.01;74.91;102529.47;5117638;27;20031;-88
2022/07/17 00:36:51;;;;;;;6.90;2.30;;;;;;;13.98;75.44;102529.88;5117757;27;20019;-89
2022/07/17 00:39:25;;;;;;;6.32;2.03;;;;;;;13.96;75.81;102531.09;5117673;27;20023;-88
2022/07/17 00:41:50;;;;;;;3.70;2.00;;;;;;;13.91;75.67;102525.41;5118217;27;20051;-88
2022/07/17 00:44:16;;;;;;;5.00;1.77;;;;;;;13.88;75.01;102528.50;5135803;27;20050;-88
2022/07/17 00:46:42;;;;;;;5.77;1.90;;;;;;;13.86;74.94;102534.16;5117295;27;20122;-88
2022/07/17 00:49:08;;;;;;;8.50;2.42;;;;;;;13.81;75.72;102534.75;5135588;27;20068;-88
2022/07/17 00:51:36;;;;;;;4.57;2.00;;;;;;;13.83;75.62;102531.81;5117405;27;20120;-88
2022/07/17 00:54:03;;;;;;;10.32;2.92;;;;;;;13.85;74.93;102540.69;5100139;27;20057;-87
2022/07/17 00:56:29;;;;;;;7.20;2.70;;;;;;;13.79;74.75;102534.13;5117085;27;20035;-88
2022/07/17 00:59:06;;;;;;;6.50;2.10;;;;;;;13.81;73.75;102540.22;5151543;27;20629;-88
2022/07/17 01:01:40;;;;;;;7.50;2.40;;;;;;;13.74;74.30;102531.13;5118041;27;20023;-88
2022/07/17 01:04:08;;;;;;;6.72;2.50;;;;;;;13.72;74.97;102527.75;5117183;27;20035;-88
2022/07/17 01:06:33;;;;;;;5.90;2.40;;;;;;;13.68;74.89;102526.44;5135286;27;20034;-88
2022/07/17 01:09:01;;;;;;;6.17;2.57;;;;;;;13.63;74.40;102527.03;5134730;27;20493;-88
2022/07/17 01:11:27;;;;;;;7.05;2.33;;;;;;;13.60;73.75;102521.97;5116976;27;20015;-89
2022/07/17 01:13:56;;;;;;;8.27;2.00;;;;;;;13.56;74.22;102517.09;5117316;27;20436;-88
2022/07/17 01:16:21;;;;;;;6.65;2.28;;;;;;;13.47;74.88;102517.22;5117597;27;20112;-88
2022/07/17 01:18:50;;;;;;;6.60;2.43;;;;;;;13.45;74.92;102521.16;5099936;27;20077;-88
2022/07/17 01:21:15;;;;;;;6.15;2.08;;;;;;;13.40;76.10;102531.81;5116877;27;20034;-88
2022/07/17 01:23:41;;;;;;;6.43;2.20;;;;;;;13.35;75.79;102526.13;5117210;27;20031;-89
2022/07/17 01:26:06;;;;;;;7.70;2.57;;;;;;;13.26;76.86;102526.19;5117318;27;20805;-88
2022/07/17 01:28:32;;;;;;;4.43;2.23;;;;;;;13.23;76.88;102520.28;5116973;27;20414;-89
2022/07/17 01:31:04;;;;;;;5.07;2.10;;;;;;;13.21;77.78;102527.81;5116443;27;20046;-88
2022/07/17 01:33:32;;;;;;;6.63;2.30;;;;;;;13.16;78.04;102517.47;5101673;27;20108;-89
2022/07/17 01:35:57;;;;;;;12.75;3.33;;;;;;;13.15;77.20;102518.50;5150849;27;20019;-88
2022/07/17 01:38:23;;;;;;;9.80;2.50;;;;;;;13.06;76.55;102508.78;5116521;27;20053;-88
2022/07/17 01:40:51;;;;;;;8.07;2.53;;;;;;;12.99;77.79;102511.41;5116619;27;20027;-88
2022/07/17 01:43:20;;;;;;;5.00;2.85;;;;;;;12.94;78.95;102511.97;5116704;27;20031;-88
2022/07/17 01:45:48;;;;;;;5.10;2.47;;;;;;;12.93;79.83;102513.03;5116500;27;20080;-88
2022/07/17 01:48:23;;;;;;;6.38;2.90;;;;;;;12.92;78.93;102513.22;5116504;27;20038;-88
2022/07/17 01:50:49;;;;;;;5.78;2.30;;;;;;;12.88;79.11;102514.63;5116585;27;20076;-88
2022/07/17 01:53:14;;;;;;;7.10;2.40;;;;;;;12.86;79.22;102516.69;5116829;28;20031;-88
2022/07/17 01:55:40;;;;;;;4.03;2.30;;;;;;;12.85;79.06;102521.31;5116192;27;20448;-88
2022/07/17 01:58:07;;;;;;;8.70;3.00;;;;;;;12.80;78.45;102521.03;5116412;28;20291;-88
2022/07/17 02:00:33;;;;;;;5.55;2.58;;;;;;;12.74;78.07;102519.91;5116257;28;20027;-88
2022/07/17 02:02:58;;;;;;;9.83;2.60;;;;;;;12.72;77.93;102526.56;5099866;27;20031;-88
2022/07/17 02:05:36;;;;;;;5.87;2.50;;;;;;;12.72;77.92;102532.84;5116365;27;20471;-88
2022/07/17 02:08:04;;;;;;;3.63;2.40;;;;;;;12.75;78.52;102537.91;5116207;28;20096;-88
2022/07/17 02:10:29;;;;;;;5.00;2.25;;;;;;;12.68;78.79;102538.88;5116285;28;20031;-88
2022/07/17 02:12:57;;;;;;;6.37;3.00;;;;;;;12.64;78.45;102527.53;5134771;28;20444;-88
2022/07/17 02:15:23;;;;;;;5.65;2.38;;;;;;;12.56;78.80;102522.16;5150719;27;20023;-88
2022/07/17 02:17:54;;;;;;;7.30;2.53;;;;;;;12.54;78.81;102532.41;5116138;28;20024;-89
2022/07/17 02:20:22;;;;;;;6.20;2.63;;;;;;;12.46;79.56;102519.72;5119569;27;20419;-88
2022/07/17 02:22:50;;;;;;;6.22;2.60;;;;;;;12.43;80.05;102520.94;5120222;27;20024;-88
2022/07/17 02:25:19;;;;;;;6.65;2.55;;;;;;;12.39;80.74;102526.97;5120298;27;20034;-88
2022/07/17 02:27:54;;;;;;;6.80;2.47;;;;;;;12.34;80.62;102530.25;5120158;27;20066;-88
2022/07/17 02:30:22;;;;;;;12.32;2.80;;;;;;;12.32;80.39;102528.72;5104484;27;20095;-88
2022/07/17 02:32:50;;;;;;;6.87;2.67;;;;;;;12.23;79.33;102517.91;5120674;27;20096;-88
2022/07/17 02:35:27;;;;;;;9.13;2.65;;;;;;;12.24;79.97;102521.50;5137494;27;20085;-88
2022/07/17 02:37:55;;;;;;;7.15;2.78;;;;;;;12.19;79.74;102524.75;5120353;27;20055;-88
2022/07/17 02:40:23;;;;;;;4.95;2.53;;;;;;;12.19;80.72;102527.47;5153899;27;20028;-89
2022/07/17 02:42:51;;;;;;;8.90;2.80;;;;;;;12.14;81.43;102524.47;5102932;27;20035;-88
2022/07/17 02:45:21;;;;;;;6.73;2.40;;;;;;;12.10;81.91;102513.09;5119779;27;20090;-88
2022/07/17 02:47:47;;;;;;;9.43;2.78;;;;;;;12.03;82.51;102514.03;5119903;27;20023;-88
2022/07/17 02:50:15;;;;;;;4.05;2.80;;;;;;;11.95;82.71;102514.13;5119545;27;20029;-88
2022/07/17 02:52:40;;;;;;;10.27;2.53;;;;;;;11.89;82.75;102508.34;5119870;27;20051;-88
2022/07/17 02:55:07;;;;;;;7.80;2.90;;;;;;;11.87;83.26;102517.69;5120129;27;20027;-89
2022/07/17 02:57:36;;;;;;;9.98;3.53;;;;;;;11.84;83.36;102509.91;5119962;27;20035;-88
2022/07/17 03:00:06;;;;;;;5.43;2.63;;;;;;;11.84;82.75;102516.22;5119769;27;20034;-88
2022/07/17 03:02:33;;;;;;;10.00;2.65;;;;;;;11.85;83.15;102514.34;5119914;27;20408;-88
2022/07/17 03:05:02;;;;;;;8.38;3.38;;;;;;;11.82;83.90;102515.53;5119503;27;20124;-88
2022/07/17 03:07:31;;;;;;;12.88;2.95;;;;;;;11.83;84.49;102513.69;5138137;27;20515;-89
2022/07/17 03:09:56;;;;;;;6.88;3.17;;;;;;;11.87;84.45;102525.84;5137069;27;20068;-89
2022/07/17 03:12:25;;;;;;;9.80;2.60;;;;;;;11.84;84.02;102531.66;5120027;27;20092;-88
2022/07/17 03:15:19;;;;;;;6.80;2.35;;;;;;;11.81;82.79;102535.63;5120169;27;20478;-88
2022/07/17 03:17:44;;;;;;;9.75;2.90;;;;;;;11.77;83.75;102540.56;5102881;27;20023;-89
2022/07/17 03:20:12;;;;;;;6.13;2.60;;;;;;;11.75;84.21;102541.75;5119233;27;20027;-89
2022/07/17 03:22:38;;;;;;;6.50;3.05;;;;;;;11.77;84.19;102545.16;5119158;27;20035;-88
2022/07/17 03:25:15;;;;;;;9.37;2.93;;;;;;;11.76;84.17;102546.19;5136492;27;20027;-89
2022/07/17 03:27:41;;;;;;;5.93;2.83;;;;;;;11.71;83.27;102535.84;5119442;27;20027;-88
2022/07/17 03:30:11;;;;;;;6.37;2.67;;;;;;;11.67;84.50;102520.94;5118799;27;20023;-89
2022/07/17 03:32:39;;;;;;;6.28;2.75;;;;;;;11.67;84.30;102526.38;5118055;27;20051;-88
2022/07/17 03:35:08;;;;;;;9.25;2.95;;;;;;;11.68;83.34;102532.66;5119104;27;20023;-89
2022/07/17 03:37:36;;;;;;;12.35;3.13;;;;;;;11.62;83.85;102527.94;5118781;27;20084;-88
2022/07/17 03:40:03;;;;;;;6.30;2.63;;;;;;;11.63;84.14;102535.06;5119205;27;20039;-88
2022/07/17 03:42:31;;;;;;;4.63;2.55;;;;;;;11.58;84.08;102528.28;5119547;27;20096;-88
2022/07/17 03:44:56;;;;;;;6.90;2.60;;;;;;;11.60;84.96;102536.28;5118784;27;20031;-88
2022/07/17 03:47:22;;;;;;;8.80;2.90;;;;;;;11.56;84.94;102535.81;5153248;27;20027;-88
2022/07/17 03:49:47;;;;;;;6.90;2.70;;;;;;;11.57;85.12;102529.34;5119960;27;20058;-89
2022/07/17 03:52:15;;;;;;;6.10;2.47;;;;;;;11.62;84.92;102541.53;5118502;27;20748;-87
2022/07/17 03:54:40;;;;;;;4.32;2.70;;;;;;;11.58;84.88;102532.91;5135718;27;20031;-85
2022/07/17 03:57:06;;;;;;;6.73;2.57;;;;;;;11.59;85.37;102538.16;5118238;27;20031;-84
2022/07/17 03:59:31;;;;;;;7.97;2.70;;;;;;;11.54;85.17;102523.41;5118630;27;20111;-85
2022/07/17 04:01:59;;;;;;;8.87;2.90;;;;;;;11.58;85.70;102538.34;5118166;27;20368;-85
2022/07/17 04:04:24;;;;;;;8.48;2.80;;;;;;;11.56;85.65;102537.69;5101757;27;20027;-85
2022/07/17 04:06:50;;;;;;;7.83;2.87;;;;;;;11.59;85.64;102540.03;5084843;27;20032;-85
2022/07/17 04:09:15;;;;;;;8.32;2.63;;;;;;;11.61;84.66;102551.56;5136380;27;20024;-85
2022/07/17 04:11:43;;;;;;;9.10;3.00;;;;;;;11.61;84.77;102550.72;5101645;27;20031;-85
2022/07/17 04:14:09;;;;;;;8.38;2.83;;;;;;;11.63;84.13;102541.34;5118988;27;20494;-85
2022/07/17 04:16:34;;;;;;;7.27;3.00;;;;;;;11.63;83.79;102554.94;5152665;27;20027;-85
2022/07/17 04:19:02;;;;;;;8.37;2.83;;;;;;;11.65;83.68;102555.63;5118132;27;20455;-84
2022/07/17 04:21:27;;;;;;;6.85;2.92;;;;;;;11.64;84.39;102555.81;5118784;27;20058;-85
2022/07/17 04:23:52;;;;;;;8.23;2.50;;;;;;;11.67;84.36;102561.72;5118002;27;20447;-85
2022/07/17 04:26:18;;;;;;;5.85;3.08;;;;;;;11.67;84.68;102569.88;5118549;27;20110;-84
2022/07/17 04:28:44;;;;;;;7.53;2.90;;;;;;;11.69;84.33;102553.38;5117660;27;20080;-85
2022/07/17 04:31:09;;;;;;;8.33;3.27;;;;;;;11.72;85.01;102555.72;5117645;27;20163;-85
2022/07/17 04:33:35;;;;;;;12.60;3.20;;;;;;;11.70;84.26;102553.19;5117569;27;20037;-85
2022/07/17 04:36:01;;;;;;;8.57;3.10;;;;;;;11.77;83.64;102564.19;5117551;27;20315;-85
2022/07/17 04:38:32;;;;;;;6.90;2.70;;;;;;;11.80;84.17;102555.69;5117718;27;20051;-84
2022/07/17 04:40:57;;;;;;;10.20;3.00;;;;;;;11.80;83.87;102552.97;5117646;27;20035;-85
2022/07/17 04:43:23;;;;;;;6.93;2.92;;;;;;;11.83;84.38;102546.31;5116552;27;20084;-85
2022/07/17 04:45:48;;;;;;;5.97;2.77;;;;;;;11.89;83.95;102545.59;5117635;27;20061;-84
2022/07/17 04:48:14;;;;;;;8.87;3.20;;;;;;;11.93;84.26;102553.22;5117315;27;20023;-84
2022/07/17 04:50:39;;;;;;;7.68;3.00;;;;;;;12.02;84.18;102554.00;5117204;27;20406;-85
2022/07/17 04:53:05;;;;;;;7.37;2.87;;;;;;;12.04;83.54;102561.97;5135320;27;20035;-84
2022/07/17 04:55:30;;;;;;;8.07;3.30;;;;;;;12.08;83.47;102560.59;5117241;27;20031;-84
2022/07/17 04:57:56;;;;;;;8.80;3.10;;;;;;;12.12;83.35;102564.63;5116770;27;20466;-84
2022/07/17 05:00:21;;;;;;;6.45;3.10;;;;;;;12.18;83.92;102568.47;5134653;27;20023;-84
2022/07/17 05:02:47;;;;;;;10.30;3.03;;;;;;;12.25;82.95;102586.63;5117275;27;20083;-84
2022/07/17 05:05:13;;;;;;;10.60;3.13;;;;;;;12.33;82.61;102582.97;5117247;27;20019;-84
2022/07/17 05:07:39;;;;;;;6.60;3.03;;;;;;;12.38;81.68;102577.81;5135620;27;20073;-83
2022/07/17 05:10:08;;;;;;;7.47;3.25;;;;;;;12.42;81.16;102570.97;5083328;27;20031;-82
2022/07/17 05:12:34;;;;;;;9.20;3.00;;;;;;;12.48;81.47;102576.72;5117036;27;20026;-81
2022/07/17 05:14:59;;;;;;;7.73;2.83;;;;;;;12.54;81.38;102574.06;5116647;27;20027;-82
2022/07/17 05:17:25;;;;;;;5.17;2.70;;;;;;;12.64;81.49;102565.66;5117841;27;20035;-82
2022/07/17 05:19:50;;;;;;;6.25;3.20;;;;;;;12.71;80.94;102566.59;5136053;27;20038;-84
2022/07/17 05:22:19;;;;;;;7.57;3.37;;;;;;;12.77;80.72;102559.53;5116569;27;20471;-84
2022/07/17 05:24:44;;;;;;;6.45;3.40;;;;;;;12.87;80.59;102560.06;5116640;27;20019;-84
2022/07/17 05:27:10;;;;;;;7.17;3.10;;;;;;;12.91;80.68;102557.84;5133623;27;20037;-84
2022/07/17 05:29:35;;;;;;;9.10;3.03;;;;;;;12.98;79.93;102565.06;5116820;27;20027;-84
2022/07/17 05:32:01;;;;;;;5.95;2.83;;;;;;;13.08;79.98;102564.78;5135570;27;20076;-82
2022/07/17 05:34:26;;;;;;;7.07;2.70;;;;;;;13.13;79.20;102558.75;5135193;27;20479;-82
2022/07/17 05:36:52;;;;;;;9.37;2.67;;;;;;;13.23;79.20;102567.47;5134883;27;20038;-82
2022/07/17 05:39:17;;;;;;;8.07;2.97;;;;;;;13.29;78.66;102569.44;5135319;27;20260;-83
2022/07/17 05:41:43;;;;;;;7.83;3.07;;;;;;;13.32;77.54;102566.31;5099729;27;20058;-83
2022/07/17 05:44:08;;;;;;;10.07;2.77;;;;;;;13.42;76.93;102574.22;5116052;27;20363;-82
2022/07/17 05:46:37;;;;;;;6.43;2.83;;;;;;;13.47;77.00;102570.91;5100012;27;20076;-83
2022/07/17 05:49:04;;;;;;;8.20;3.00;;;;;;;13.53;76.20;102558.41;5117144;27;20535;-83
2022/07/17 05:51:30;;;;;;;6.60;3.40;;;;;;;13.51;76.58;102567.63;5116554;28;20059;-84
2022/07/17 05:54:03;;;;;;;7.30;2.97;;;;;;;13.56;76.18;102568.91;5116978;27;20079;-88
2022/07/17 05:56:28;;;;;;;7.40;3.70;;;;;;;13.64;76.17;102571.50;5099738;27;20470;-85
2022/07/17 05:58:54;;;;;;;8.67;3.27;;;;;;;13.71;76.40;102561.50;5116779;27;20034;-85
2022/07/17 06:01:19;;;;;;;11.30;3.17;;;;;;;13.80;75.20;102563.09;5116285;27;20059;-85
2022/07/17 06:03:44;;;;;;;9.80;3.20;;;;;;;13.85;75.06;102565.22;5116327;28;20023;-86
2022/07/17 06:06:10;;;;;;;9.17;3.87;;;;;;;13.90;74.95;102556.47;5116392;27;20031;-83
2022/07/17 06:08:36;;;;;;;9.15;3.70;;;;;;;13.91;74.25;102545.34;5099304;28;20436;-85
2022/07/17 06:11:04;;;;;;;10.17;4.17;;;;;;;13.99;74.92;102547.09;5134471;28;20027;-86
2022/07/17 06:13:30;;;;;;;12.13;3.72;;;;;;;14.03;75.01;102543.75;5099390;28;20490;-85
2022/07/17 06:15:58;;;;;;;8.07;3.80;;;;;;;14.07;74.76;102538.78;5133229;28;20032;-85
2022/07/17 06:18:25;;;;;;;10.60;4.05;;;;;;;14.14;74.76;102547.00;5134666;28;20031;-85
2022/07/17 06:20:51;;;;;;;11.30;4.40;;;;;;;14.20;74.62;102544.34;5134602;28;20024;-86
2022/07/17 06:23:16;;;;;;;11.87;4.50;;;;;;;14.25;74.92;102545.63;5116874;28;20035;-85
2022/07/17 06:25:41;;;;;;;8.23;4.43;;;;;;;14.27;74.38;102538.91;5150430;27;20403;-86
2022/07/17 06:28:07;;;;;;;7.40;4.30;;;;;;;14.31;74.37;102540.19;5133182;28;20038;-85
2022/07/17 06:30:32;;;;;;;7.13;4.78;;;;;;;14.36;74.57;102548.66;5082225;28;20130;-85
2022/07/17 06:32:58;;;;;;;9.57;4.50;;;;;;;14.43;74.04;102556.88;5116139;28;20031;-85
2022/07/17 06:35:23;;;;;;;8.53;4.13;;;;;;;14.49;73.98;102560.69;5082332;28;20047;-85
2022/07/17 06:37:49;;;;;;;11.07;4.35;;;;;;;14.55;72.91;102558.00;5115593;28;20051;-86
2022/07/17 06:40:14;;;;;;;11.53;4.70;;;;;;;14.64;72.83;102560.59;5098801;28;20033;-85
2022/07/17 06:42:40;;;;;;;9.90;4.63;;;;;;;14.66;73.27;102563.97;5114886;28;20118;-85
2022/07/17 06:45:09;;;;;;;12.00;4.50;;;;;;;14.74;73.51;102581.06;5115452;28;20031;-85
2022/07/17 06:47:37;;;;;;;7.10;4.15;;;;;;;14.77;72.36;102582.53;5115607;28;20039;-85
2022/07/17 06:50:03;;;;;;;6.88;3.83;;;;;;;14.87;71.43;102590.38;5134046;28;20043;-85
2022/07/17 06:52:28;;;;;;;6.95;4.15;;;;;;;14.90;71.40;102588.09;5098391;28;20440;-85
2022/07/17 06:54:54;;;;;;;7.93;4.13;;;;;;;14.93;69.88;102583.28;5134409;28;20047;-85
2022/07/17 06:57:19;;;;;;;14.37;4.10;;;;;;;14.99;70.74;102579.72;5115732;28;20039;-85
2022/07/17 06:59:45;;;;;;;9.07;4.03;;;;;;;15.06;70.63;102583.34;5115721;28;20096;-85
2022/07/17 07:02:10;;;;;;;9.45;4.47;;;;;;;15.16;70.43;102586.53;5132660;28;20038;-85
2022/07/17 07:04:36;;;;;;;11.37;4.43;;;;;;;15.20;70.37;102589.69;5132684;28;20047;-85
2022/07/17 07:07:01;;;;;;;11.67;4.83;;;;;;;15.25;69.26;102595.38;5135778;27;20031;-85
2022/07/17 07:09:27;;;;;;;10.93;4.03;;;;;;;15.26;69.66;102589.75;5119377;27;20118;-84
2022/07/17 07:11:52;;;;;;;7.53;4.37;;;;;;;15.36;69.39;102599.44;5119387;27;20288;-85
2022/07/17 07:14:18;;;;;;;7.43;4.00;;;;;;;15.42;69.50;102601.34;5102799;27;20527;-84
2022/07/17 07:16:43;;;;;;;9.60;3.90;;;;;;;15.46;69.44;102605.38;5119127;27;20050;-85
2022/07/17 07:19:11;;;;;;;10.25;4.20;;;;;;;15.54;69.83;102610.63;5119229;27;20035;-87
2022/07/17 07:21:38;;;;;;;9.87;4.47;;;;;;;15.60;70.48;102609.84;5102544;27;20036;-87
2022/07/17 07:24:10;;;;;;;10.10;4.88;;;;;;;15.64;69.04;102603.94;5138017;27;20030;-87
2022/07/17 07:26:37;;;;;;;6.95;4.15;;;;;;;15.72;68.18;102604.59;5119219;27;20023;-87
2022/07/17 07:29:03;;;;;;;11.00;4.15;;;;;;;15.76;68.22;102608.59;5137519;27;20039;-87
2022/07/17 07:31:28;;;;;;;6.23;3.00;;;;;;;15.79;67.18;102607.38;5138390;27;20036;-86
2022/07/17 07:33:59;;;;;;;8.40;2.70;;;;;;;15.81;65.27;102597.09;5137505;27;20023;-87
2022/07/17 07:36:25;;;;;;;7.90;3.28;;;;;;;15.87;66.16;102601.72;5138304;27;20031;-86
2022/07/17 07:38:53;;;;;;;9.30;3.33;;;;;;;15.94;67.03;102596.22;5118528;27;20504;-86
2022/07/17 07:41:18;;;;;;;8.27;3.60;;;;;;;16.03;67.36;102607.81;5136992;27;20109;-87
2022/07/17 07:43:44;;;;;;;9.90;3.40;;;;;;;16.06;66.49;102591.84;5101998;27;20118;-87
2022/07/17 07:46:09;;;;;;;11.10;2.97;;;;;;;16.16;65.49;102599.63;5153227;27;20063;-86
2022/07/17 07:48:35;;;;;;;8.27;2.93;;;;;;;16.23;64.52;102614.16;5137176;27;20063;-85
2022/07/17 07:51:01;;;;;;;9.03;2.80;;;;;;;16.24;63.67;102604.03;5118589;27;20043;-87
2022/07/17 07:53:27;;;;;;;10.95;2.70;;;;;;;16.34;64.66;102614.59;5137128;27;20106;-85
2022/07/17 07:55:55;;;;;;;10.38;2.85;;;;;;;16.37;64.33;102611.41;5136800;27;20471;-86
2022/07/17 07:58:23;;;;;;;6.53;2.90;;;;;;;16.40;65.14;102603.63;5102240;27;20031;-86
2022/07/17 08:00:49;;;;;;;10.15;3.08;;;;;;;16.48;65.09;102605.31;5118171;27;20020;-85
2022/07/17 08:03:15;;;;;;;8.93;2.70;;;;;;;16.53;64.38;102605.50;5118446;27;20072;-86
2022/07/17 08:05:41;;;;;;;8.77;3.10;;;;;;;16.61;64.63;102605.28;5136723;27;20030;-86
2022/07/17 08:08:07;;;;;;;9.87;2.70;;;;;;;16.69;64.42;102609.69;5118229;27;20126;-85
2022/07/17 08:10:33;;;;;;;9.30;2.60;;;;;;;16.77;63.57;102605.88;5118002;27;20031;-85
2022/07/17 08:12:58;;;;;;;6.38;2.35;;;;;;;16.91;63.20;102617.72;5118296;27;20080;-88
2022/07/17 08:15:24;;;;;;;5.50;2.67;;;;;;;16.97;62.36;102611.34;5136616;27;20118;-88
2022/07/17 08:17:52;;;;;;;7.53;2.50;;;;;;;17.03;62.37;102615.97;5117597;27;20376;-88
2022/07/17 08:20:18;;;;;;;6.70;2.20;;;;;;;17.04;61.17;102617.66;5118283;27;20027;-88
2022/07/17 08:22:47;;;;;;;7.78;2.97;;;;;;;17.10;61.46;102618.72;5117282;27;20027;-88
2022/07/17 08:25:12;;;;;;;6.57;2.40;;;;;;;17.15;61.88;102616.97;5117874;27;20502;-87
2022/07/17 08:27:42;;;;;;;9.20;2.20;;;;;;;17.23;60.47;102623.28;5136224;27;20051;-87
2022/07/17 08:30:10;;;;;;;11.90;3.30;;;;;;;17.26;60.38;102615.47;5117660;27;20474;-88
2022/07/17 08:32:36;;;;;;;6.10;2.10;;;;;;;17.38;60.78;102618.38;5118153;27;20054;-87
2022/07/17 08:35:03;;;;;;;9.65;3.38;;;;;;;17.50;61.38;102608.38;5152182;27;20133;-87
2022/07/17 08:37:29;;;;;;;6.23;2.33;;;;;;;17.56;60.84;102612.16;5135856;27;20408;-87
2022/07/17 08:39:57;;;;;;;6.53;2.40;;;;;;;17.64;61.31;102611.06;5117763;27;20530;-87
2022/07/17 08:42:23;;;;;;;8.10;2.70;;;;;;;17.72;59.84;102605.31;5117640;27;20027;-89
2022/07/17 08:44:49;;;;;;;3.63;2.10;;;;;;;17.79;59.52;102603.38;5100859;27;20035;-87
2022/07/17 08:47:15;;;;;;;5.82;1.92;;;;;;;17.87;58.84;102603.09;5118311;27;20390;-87
2022/07/17 08:49:45;;;;;;;8.98;2.35;;;;;;;18.00;58.90;102604.94;5117786;27;20155;-86
2022/07/17 08:52:12;;;;;;;5.40;2.20;;;;;;;18.05;58.35;102607.88;5136255;27;20130;-86
2022/07/17 08:54:37;;;;;;;5.80;2.17;;;;;;;18.15;58.08;102607.38;5117806;27;20031;-86
2022/07/17 08:57:08;;;;;;;5.88;2.33;;;;;;;18.26;57.71;102608.53;5117395;27;20031;-86
2022/07/17 08:59:44;;;;;;;6.47;2.20;;;;;;;18.33;57.45;102597.50;5117545;27;20031;-86
2022/07/17 09:02:12;;;;;;;7.50;2.50;;;;;;;18.50;57.37;102601.34;5135062;27;20031;-83
2022/07/17 09:04:55;;;;;;;5.07;2.03;;;;;;;18.63;56.15;102602.28;5151837;27;20125;-85
2022/07/17 09:07:26;;;;;;;4.85;1.80;;;;;;;18.75;56.02;102601.31;5116881;27;20019;-84
2022/07/17 09:09:54;;;;;;;5.82;1.95;;;;;;;18.95;56.93;102610.44;5117929;27;20079;-84
2022/07/17 09:12:31;;;;;;;8.65;2.30;;;;;;;19.03;55.81;102602.72;5135577;27;20027;-85
2022/07/17 09:14:57;;;;;;;4.72;1.70;;;;;;;19.15;54.83;102599.19;5135987;27;20027;-85
2022/07/17 09:17:26;;;;;;;7.43;1.90;;;;;;;19.32;55.23;102592.00;5117301;27;20085;-85
2022/07/17 09:19:59;;;;;;;3.58;1.77;;;;;;;19.48;54.32;102590.50;5135674;27;20023;-85
2022/07/17 09:22:25;;;;;;;6.43;1.47;;;;;;;19.62;52.06;102596.66;5117155;27;20470;-85
2022/07/17 09:24:59;;;;;;;4.85;1.48;;;;;;;19.79;51.29;102591.38;5117107;27;20179;-85
2022/07/17 09:27:24;;;;;;;4.72;1.85;;;;;;;19.92;49.52;102595.84;5116987;27;20020;-85
2022/07/17 09:30:00;;;;;;;6.23;1.47;;;;;;;19.97;48.68;102593.19;5115891;27;20071;-84
2022/07/17 09:32:36;;;;;;;4.05;1.80;;;;;;;20.10;51.08;102592.16;5134855;27;20030;-85
2022/07/17 09:35:05;;;;;;;4.30;1.30;;;;;;;20.19;47.44;102598.16;5135079;27;20023;-85
2022/07/17 09:37:34;;;;;;;4.45;1.60;;;;;;;20.20;46.60;102597.09;5116495;27;20054;-85
2022/07/17 09:40:11;;;;;;;3.35;1.27;;;;;;;20.29;47.58;102590.97;5116530;27;20030;-86
2022/07/17 09:42:59;;;;;;;6.97;1.52;;;;;;;20.38;45.81;102594.22;5134400;27;20038;-85
2022/07/17 09:45:24;;;;;;;3.53;1.73;;;;;;;20.44;47.82;102589.66;5134964;27;20387;-85
2022/07/17 09:47:53;;;;;;;6.53;1.53;;;;;;;20.47;47.33;102594.69;5134472;27;20475;-85
2022/07/17 09:50:19;;;;;;;7.28;2.05;;;;;;;20.52;47.63;102589.28;5099261;27;20035;-85
2022/07/17 09:52:45;;;;;;;7.75;1.85;;;;;;;20.50;46.96;102594.22;5135276;27;20047;-86
2022/07/17 09:55:12;;;;;;;6.23;1.60;;;;;;;20.59;48.09;102589.16;5134479;27;20546;-86
2022/07/17 09:57:43;;;;;;;5.95;1.65;;;;;;;20.72;48.56;102579.84;5115920;27;20019;-85
2022/07/17 10:00:16;;;;;;;6.00;1.90;;;;;;;20.90;48.01;102595.41;5150521;27;20024;-86
2022/07/17 10:02:47;;;;;;;6.97;1.88;;;;;;;21.05;46.94;102583.84;5151252;27;20448;-85
2022/07/17 10:05:16;;;;;;;3.78;1.60;;;;;;;21.19;45.76;102582.50;5099548;28;20065;-86
2022/07/17 10:07:48;;;;;;;6.27;1.87;;;;;;;21.30;45.77;102591.81;5116149;27;20486;-86
2022/07/17 10:10:17;;;;;;;4.10;1.67;;;;;;;21.45;44.06;102591.28;5116969;28;20379;-86
2022/07/17 10:12:45;;;;;;;3.83;1.70;;;;;;;21.58;43.79;102592.94;5115877;28;20031;-85
2022/07/17 10:15:12;;;;;;;3.40;1.35;;;;;;;21.87;42.24;102585.44;5115853;28;20075;-86
2022/07/17 10:17:43;;;;;;;2.78;1.35;;;;;;;22.06;42.12;102583.28;5116282;28;20031;-86
2022/07/17 10:20:13;;;;;;;3.93;1.70;;;;;;;22.33;42.95;102588.16;5116118;28;20023;-85
2022/07/17 10:22:52;;;;;;;3.50;1.67;;;;;;;22.57;41.86;102583.25;5134664;28;20098;-86
2022/07/17 10:25:17;;;;;;;4.82;1.75;;;;;;;22.85;40.86;102585.03;5117106;28;20031;-86
2022/07/17 10:27:54;;;;;;;4.57;1.42;;;;;;;23.05;40.13;102595.53;5115832;28;20031;-85
2022/07/17 10:30:29;;;;;;;3.87;1.50;;;;;;;23.10;39.10;102589.25;5116952;28;20451;-86
2022/07/17 10:33:08;;;;;;;7.55;1.92;;;;;;;23.12;40.01;102593.44;5116846;28;20027;-86
2022/07/17 10:35:52;;;;;;;4.32;1.60;;;;;;;23.19;39.60;102582.16;5117470;28;20031;-86
2022/07/17 10:38:25;;;;;;;4.78;1.65;;;;;;;23.37;38.25;102578.22;5116408;28;20328;-86
2022/07/17 10:41:04;;;;;;;4.28;1.50;;;;;;;23.54;39.33;102586.41;5117391;27;20027;-86
2022/07/17 10:43:50;;;;;;;4.93;2.07;;;;;;;23.76;39.05;102582.75;5118991;27;20020;-86
2022/07/17 10:46:18;;;;;;;5.93;1.70;;;;;;;23.99;38.38;102576.91;5120188;27;20029;-86
2022/07/17 10:48:49;;;;;;;4.22;1.70;;;;;;;24.21;38.73;102580.66;5119531;27;20031;-84
2022/07/17 10:51:15;;;;;;;7.75;1.60;;;;;;;24.40;37.62;102575.53;5138181;27;20047;-85
2022/07/17 10:53:40;;;;;;;6.33;1.80;;;;;;;24.63;36.46;102569.59;5138328;27;20080;-85
2022/07/17 10:56:08;;;;;;;3.50;1.60;;;;;;;24.92;36.44;102573.88;5137792;27;20083;-86
2022/07/17 10:58:37;;;;;;;7.13;1.63;;;;;;;25.09;35.75;102576.47;5120033;27;20025;-85
2022/07/17 11:01:05;;;;;;;4.07;1.92;;;;;;;25.35;35.90;102589.34;5138344;27;20126;-85
2022/07/17 11:03:37;;;;;;;6.47;2.00;;;;;;;25.81;34.91;102573.84;5138655;27;20042;-85
2022/07/17 11:06:20;;;;;;;4.20;2.17;;;;;;;25.88;36.30;102589.16;5119587;27;20031;-85
2022/07/17 11:08:49;;;;;;;5.50;2.53;;;;;;;25.98;35.30;102581.91;5119609;27;20030;-85
2022/07/17 11:11:34;;;;;;;5.17;2.00;;;;;;;26.22;34.99;102583.03;5137668;27;20117;-88
2022/07/17 11:14:19;;;;;;;4.60;2.30;;;;;;;26.55;35.25;102579.91;5119641;27;20076;-86
2022/07/17 11:16:53;;;;;;;4.72;2.40;;;;;;;26.69;34.39;102571.81;5119006;27;20029;-85
2022/07/17 11:19:33;;;;;;;5.28;1.90;;;;;;;27.11;34.04;102567.75;5137835;27;20026;-85
2022/07/17 11:22:10;;;;;;;6.15;1.90;;;;;;;28.01;33.63;102576.94;5138099;27;20019;-85
2022/07/17 11:24:44;;;;;;;6.77;1.90;;;;;;;28.71;32.41;102567.28;5138097;27;20027;-85
2022/07/17 11:27:11;;;;;;;5.63;2.08;;;;;;;30.21;29.47;102574.31;5137193;27;20027;-85